sensor_id;sensor_type;location;lat;lon;timestamp;P1;durP1;ratioP1;P2;durP2;ratioP2
12784;SDS011;6456;42.680;23.260;2023-05-17T00:00:14;13.93;;;12.43;;
12784;SDS011;6456;42.680;23.260;2023-05-17T00:02:41;17.17;;;12.60;;
12784;SDS011;6456;42.680;23.260;2023-05-17T00:05:10;20.03;;;13.73;;
12784;SDS011;6456;42.680;23.260;2023-05-17T00:07:37;14.33;;;12.83;;
12784;SDS011;6456;42.680;23.260;2023-05-17T00:10:04;14.00;;;11.60;;
12784;SDS011;6456;42.680;23.260;2023-05-17T00:12:31;15.97;;;12.50;;
12784;SDS011;6456;42.680;23.260;2023-05-17T00:14:58;15.27;;;11.90;;
12784;SDS011;6456;42.680;23.260;2023-05-17T00:17:25;13.20;;;11.07;;
12784;SDS011;6456;42.680;23.260;2023-05-17T00:19:52;12.43;;;11.10;;
12784;SDS011;6456;42.680;23.260;2023-05-17T00:22:21;15.03;;;11.63;;
12784;SDS011;6456;42.680;23.260;2023-05-17T00:24:48;16.47;;;11.43;;
12784;SDS011;6456;42.680;23.260;2023-05-17T00:27:14;14.57;;;10.77;;
12784;SDS011;6456;42.680;23.260;2023-05-17T00:29:41;17.50;;;11.37;;
12784;SDS011;6456;42.680;23.260;2023-05-17T00:32:08;12.73;;;11.10;;
12784;SDS011;6456;42.680;23.260;2023-05-17T00:34:38;13.80;;;10.63;;
12784;SDS011;6456;42.680;23.260;2023-05-17T00:37:05;16.07;;;11.70;;
12784;SDS011;6456;42.680;23.260;2023-05-17T00:39:33;18.03;;;11.93;;
12784;SDS011;6456;42.680;23.260;2023-05-17T00:42:00;16.97;;;12.37;;
12784;SDS011;6456;42.680;23.260;2023-05-17T00:44:27;18.40;;;12.40;;
12784;SDS011;6456;42.680;23.260;2023-05-17T00:46:54;14.50;;;12.27;;
12784;SDS011;6456;42.680;23.260;2023-05-17T00:49:21;15.53;;;12.57;;
12784;SDS011;6456;42.680;23.260;2023-05-17T00:51:48;17.43;;;12.30;;
12784;SDS011;6456;42.680;23.260;2023-05-17T00:54:16;16.90;;;12.13;;
12784;SDS011;6456;42.680;23.260;2023-05-17T00:56:45;17.47;;;12.30;;
12784;SDS011;6456;42.680;23.260;2023-05-17T00:59:12;16.43;;;11.37;;
12784;SDS011;6456;42.680;23.260;2023-05-17T01:01:40;14.67;;;10.30;;
12784;SDS011;6456;42.680;23.260;2023-05-17T01:04:08;13.90;;;10.67;;
12784;SDS011;6456;42.680;23.260;2023-05-17T01:06:35;13.40;;;10.43;;
12784;SDS011;6456;42.680;23.260;2023-05-17T01:09:02;12.80;;;9.83;;
12784;SDS011;6456;42.680;23.260;2023-05-17T01:11:41;12.27;;;9.07;;
12784;SDS011;6456;42.680;23.260;2023-05-17T01:14:23;12.93;;;8.93;;
12784;SDS011;6456;42.680;23.260;2023-05-17T01:17:00;13.77;;;8.83;;
12784;SDS011;6456;42.680;23.260;2023-05-17T01:19:39;12.97;;;9.43;;
12784;SDS011;6456;42.680;23.260;2023-05-17T01:22:19;14.07;;;8.43;;
12784;SDS011;6456;42.680;23.260;2023-05-17T01:25:00;12.70;;;7.93;;
12784;SDS011;6456;42.680;23.260;2023-05-17T01:27:39;11.73;;;8.30;;
12784;SDS011;6456;42.680;23.260;2023-05-17T01:30:08;10.43;;;8.60;;
12784;SDS011;6456;42.680;23.260;2023-05-17T01:32:37;13.60;;;8.07;;
12784;SDS011;6456;42.680;23.260;2023-05-17T01:35:07;10.60;;;7.00;;
12784;SDS011;6456;42.680;23.260;2023-05-17T01:37:35;11.97;;;8.03;;
12784;SDS011;6456;42.680;23.260;2023-05-17T01:40:03;12.23;;;8.03;;
12784;SDS011;6456;42.680;23.260;2023-05-17T01:42:32;12.23;;;8.27;;
12784;SDS011;6456;42.680;23.260;2023-05-17T01:45:05;11.93;;;8.67;;
12784;SDS011;6456;42.680;23.260;2023-05-17T01:47:38;12.83;;;8.50;;
12784;SDS011;6456;42.680;23.260;2023-05-17T01:50:11;14.30;;;9.70;;
12784;SDS011;6456;42.680;23.260;2023-05-17T01:52:44;21.67;;;16.40;;
12784;SDS011;6456;42.680;23.260;2023-05-17T01:55:17;19.40;;;11.03;;
12784;SDS011;6456;42.680;23.260;2023-05-17T01:57:51;16.57;;;9.43;;
12784;SDS011;6456;42.680;23.260;2023-05-17T02:00:20;14.17;;;9.23;;
12784;SDS011;6456;42.680;23.260;2023-05-17T02:02:49;10.67;;;9.00;;
12784;SDS011;6456;42.680;23.260;2023-05-17T02:05:16;15.17;;;10.47;;
12784;SDS011;6456;42.680;23.260;2023-05-17T02:07:43;16.50;;;11.00;;
12784;SDS011;6456;42.680;23.260;2023-05-17T02:10:10;13.30;;;10.43;;
12784;SDS011;6456;42.680;23.260;2023-05-17T02:12:37;14.83;;;11.00;;
12784;SDS011;6456;42.680;23.260;2023-05-17T02:15:04;15.87;;;11.70;;
12784;SDS011;6456;42.680;23.260;2023-05-17T02:17:36;14.43;;;12.37;;
12784;SDS011;6456;42.680;23.260;2023-05-17T02:20:05;17.33;;;12.47;;
12784;SDS011;6456;42.680;23.260;2023-05-17T02:22:33;15.97;;;12.23;;
12784;SDS011;6456;42.680;23.260;2023-05-17T02:25:00;14.00;;;11.63;;
12784;SDS011;6456;42.680;23.260;2023-05-17T02:27:27;14.93;;;12.00;;
12784;SDS011;6456;42.680;23.260;2023-05-17T02:29:54;14.70;;;10.70;;
12784;SDS011;6456;42.680;23.260;2023-05-17T02:32:21;11.03;;;9.77;;
12784;SDS011;6456;42.680;23.260;2023-05-17T02:34:50;13.33;;;9.80;;
12784;SDS011;6456;42.680;23.260;2023-05-17T02:37:17;13.63;;;9.77;;
12784;SDS011;6456;42.680;23.260;2023-05-17T02:39:44;12.43;;;9.10;;
12784;SDS011;6456;42.680;23.260;2023-05-17T02:42:11;12.27;;;9.33;;
12784;SDS011;6456;42.680;23.260;2023-05-17T02:44:38;12.90;;;9.57;;
12784;SDS011;6456;42.680;23.260;2023-05-17T02:47:05;12.50;;;10.13;;
12784;SDS011;6456;42.680;23.260;2023-05-17T02:49:32;10.60;;;9.27;;
12784;SDS011;6456;42.680;23.260;2023-05-17T02:52:00;13.20;;;9.83;;
12784;SDS011;6456;42.680;23.260;2023-05-17T02:54:27;11.87;;;9.70;;
12784;SDS011;6456;42.680;23.260;2023-05-17T02:56:54;15.03;;;11.03;;
12784;SDS011;6456;42.680;23.260;2023-05-17T02:59:21;12.53;;;10.37;;
12784;SDS011;6456;42.680;23.260;2023-05-17T03:01:48;14.87;;;11.33;;
12784;SDS011;6456;42.680;23.260;2023-05-17T03:04:15;16.97;;;13.53;;
12784;SDS011;6456;42.680;23.260;2023-05-17T03:06:44;18.17;;;12.90;;
12784;SDS011;6456;42.680;23.260;2023-05-17T03:09:12;16.57;;;12.90;;
12784;SDS011;6456;42.680;23.260;2023-05-17T03:11:40;15.97;;;11.67;;
12784;SDS011;6456;42.680;23.260;2023-05-17T03:14:06;15.40;;;12.43;;
12784;SDS011;6456;42.680;23.260;2023-05-17T03:16:33;16.30;;;13.20;;
12784;SDS011;6456;42.680;23.260;2023-05-17T03:19:00;14.10;;;12.60;;
12784;SDS011;6456;42.680;23.260;2023-05-17T03:21:28;16.30;;;12.10;;
12784;SDS011;6456;42.680;23.260;2023-05-17T03:23:55;18.00;;;12.77;;
12784;SDS011;6456;42.680;23.260;2023-05-17T03:26:24;18.40;;;14.23;;
12784;SDS011;6456;42.680;23.260;2023-05-17T03:28:51;17.37;;;14.60;;
12784;SDS011;6456;42.680;23.260;2023-05-17T03:31:18;19.80;;;14.13;;
12784;SDS011;6456;42.680;23.260;2023-05-17T03:33:45;15.40;;;12.93;;
12784;SDS011;6456;42.680;23.260;2023-05-17T03:36:12;14.73;;;12.13;;
12784;SDS011;6456;42.680;23.260;2023-05-17T03:38:39;18.63;;;12.73;;
12784;SDS011;6456;42.680;23.260;2023-05-17T03:41:06;16.40;;;12.77;;
12784;SDS011;6456;42.680;23.260;2023-05-17T03:43:35;15.10;;;11.67;;
12784;SDS011;6456;42.680;23.260;2023-05-17T03:46:02;16.67;;;12.13;;
12784;SDS011;6456;42.680;23.260;2023-05-17T03:48:28;15.17;;;12.10;;
12784;SDS011;6456;42.680;23.260;2023-05-17T03:50:55;15.47;;;13.03;;
12784;SDS011;6456;42.680;23.260;2023-05-17T03:53:22;14.60;;;11.83;;
12784;SDS011;6456;42.680;23.260;2023-05-17T03:55:49;16.23;;;12.10;;
12784;SDS011;6456;42.680;23.260;2023-05-17T03:58:16;17.40;;;12.10;;
12784;SDS011;6456;42.680;23.260;2023-05-17T04:00:44;15.40;;;13.20;;
12784;SDS011;6456;42.680;23.260;2023-05-17T04:03:11;15.23;;;12.50;;
12784;SDS011;6456;42.680;23.260;2023-05-17T04:05:39;20.00;;;12.13;;
12784;SDS011;6456;42.680;23.260;2023-05-17T04:08:06;19.10;;;12.50;;
12784;SDS011;6456;42.680;23.260;2023-05-17T04:10:33;16.77;;;13.33;;
12784;SDS011;6456;42.680;23.260;2023-05-17T04:12:59;14.20;;;11.33;;
12784;SDS011;6456;42.680;23.260;2023-05-17T04:15:26;15.33;;;12.40;;
12784;SDS011;6456;42.680;23.260;2023-05-17T04:17:55;21.17;;;12.87;;
12784;SDS011;6456;42.680;23.260;2023-05-17T04:20:22;14.80;;;11.50;;
12784;SDS011;6456;42.680;23.260;2023-05-17T04:22:49;15.93;;;12.17;;
12784;SDS011;6456;42.680;23.260;2023-05-17T04:25:16;16.23;;;12.27;;
12784;SDS011;6456;42.680;23.260;2023-05-17T04:27:43;16.20;;;11.67;;
12784;SDS011;6456;42.680;23.260;2023-05-17T04:30:10;13.83;;;12.20;;
12784;SDS011;6456;42.680;23.260;2023-05-17T04:32:38;18.90;;;11.83;;
12784;SDS011;6456;42.680;23.260;2023-05-17T04:35:08;14.10;;;12.20;;
12784;SDS011;6456;42.680;23.260;2023-05-17T04:37:35;19.60;;;12.93;;
12784;SDS011;6456;42.680;23.260;2023-05-17T04:40:04;13.97;;;12.37;;
12784;SDS011;6456;42.680;23.260;2023-05-17T04:42:35;14.30;;;12.43;;
12784;SDS011;6456;42.680;23.260;2023-05-17T04:45:02;20.97;;;13.40;;
12784;SDS011;6456;42.680;23.260;2023-05-17T04:47:29;18.63;;;13.50;;
12784;SDS011;6456;42.680;23.260;2023-05-17T04:49:56;18.27;;;13.97;;
12784;SDS011;6456;42.680;23.260;2023-05-17T04:52:24;20.93;;;15.80;;
12784;SDS011;6456;42.680;23.260;2023-05-17T04:54:51;21.67;;;16.23;;
12784;SDS011;6456;42.680;23.260;2023-05-17T04:57:18;20.37;;;15.83;;
12784;SDS011;6456;42.680;23.260;2023-05-17T04:59:46;18.67;;;15.57;;
12784;SDS011;6456;42.680;23.260;2023-05-17T05:02:13;22.83;;;15.93;;
12784;SDS011;6456;42.680;23.260;2023-05-17T05:04:40;20.97;;;16.37;;
12784;SDS011;6456;42.680;23.260;2023-05-17T05:07:06;21.60;;;16.37;;
12784;SDS011;6456;42.680;23.260;2023-05-17T05:09:35;20.63;;;14.97;;
12784;SDS011;6456;42.680;23.260;2023-05-17T05:12:02;21.93;;;15.80;;
12784;SDS011;6456;42.680;23.260;2023-05-17T05:14:29;17.70;;;15.30;;
12784;SDS011;6456;42.680;23.260;2023-05-17T05:16:56;17.40;;;14.33;;
12784;SDS011;6456;42.680;23.260;2023-05-17T05:19:22;20.07;;;15.43;;
12784;SDS011;6456;42.680;23.260;2023-05-17T05:21:49;16.57;;;14.57;;
12784;SDS011;6456;42.680;23.260;2023-05-17T05:24:16;21.03;;;15.83;;
12784;SDS011;6456;42.680;23.260;2023-05-17T05:26:44;16.87;;;14.93;;
12784;SDS011;6456;42.680;23.260;2023-05-17T05:29:11;18.43;;;15.50;;
12784;SDS011;6456;42.680;23.260;2023-05-17T05:31:38;19.93;;;16.00;;
12784;SDS011;6456;42.680;23.260;2023-05-17T05:34:05;16.00;;;13.90;;
12784;SDS011;6456;42.680;23.260;2023-05-17T05:36:31;18.43;;;14.43;;
12784;SDS011;6456;42.680;23.260;2023-05-17T05:38:58;18.30;;;13.60;;
12784;SDS011;6456;42.680;23.260;2023-05-17T05:41:25;19.13;;;14.13;;
12784;SDS011;6456;42.680;23.260;2023-05-17T05:43:53;19.23;;;13.43;;
12784;SDS011;6456;42.680;23.260;2023-05-17T05:46:21;19.30;;;13.57;;
12784;SDS011;6456;42.680;23.260;2023-05-17T05:48:48;18.03;;;13.33;;
12784;SDS011;6456;42.680;23.260;2023-05-17T05:51:15;20.60;;;13.20;;
12784;SDS011;6456;42.680;23.260;2023-05-17T05:53:42;18.03;;;13.53;;
12784;SDS011;6456;42.680;23.260;2023-05-17T05:56:09;16.17;;;12.10;;
12784;SDS011;6456;42.680;23.260;2023-05-17T05:58:36;16.70;;;12.10;;
12784;SDS011;6456;42.680;23.260;2023-05-17T06:01:04;17.10;;;12.40;;
12784;SDS011;6456;42.680;23.260;2023-05-17T06:03:31;15.80;;;12.77;;
12784;SDS011;6456;42.680;23.260;2023-05-17T06:05:58;21.13;;;13.03;;
12784;SDS011;6456;42.680;23.260;2023-05-17T06:08:25;15.77;;;11.83;;
12784;SDS011;6456;42.680;23.260;2023-05-17T06:10:52;16.50;;;12.70;;
12784;SDS011;6456;42.680;23.260;2023-05-17T06:13:19;15.20;;;11.73;;
12784;SDS011;6456;42.680;23.260;2023-05-17T06:15:46;17.77;;;11.70;;
12784;SDS011;6456;42.680;23.260;2023-05-17T06:18:14;15.40;;;11.03;;
12784;SDS011;6456;42.680;23.260;2023-05-17T06:20:41;17.80;;;10.83;;
12784;SDS011;6456;42.680;23.260;2023-05-17T06:23:07;15.10;;;10.47;;
12784;SDS011;6456;42.680;23.260;2023-05-17T06:25:34;15.50;;;10.40;;
12784;SDS011;6456;42.680;23.260;2023-05-17T06:28:02;15.83;;;11.03;;
12784;SDS011;6456;42.680;23.260;2023-05-17T06:30:29;16.53;;;11.53;;
12784;SDS011;6456;42.680;23.260;2023-05-17T06:32:55;14.40;;;10.17;;
12784;SDS011;6456;42.680;23.260;2023-05-17T06:35:24;16.93;;;10.67;;
12784;SDS011;6456;42.680;23.260;2023-05-17T06:37:51;16.67;;;10.37;;
12784;SDS011;6456;42.680;23.260;2023-05-17T06:40:18;13.10;;;10.30;;
12784;SDS011;6456;42.680;23.260;2023-05-17T06:42:45;12.63;;;9.53;;
12784;SDS011;6456;42.680;23.260;2023-05-17T06:45:11;16.37;;;9.97;;
12784;SDS011;6456;42.680;23.260;2023-05-17T06:47:39;19.10;;;10.10;;
12784;SDS011;6456;42.680;23.260;2023-05-17T06:50:06;12.03;;;9.70;;
12784;SDS011;6456;42.680;23.260;2023-05-17T06:52:35;14.27;;;9.73;;
12784;SDS011;6456;42.680;23.260;2023-05-17T06:55:02;13.67;;;9.30;;
12784;SDS011;6456;42.680;23.260;2023-05-17T06:57:29;11.37;;;8.43;;
12784;SDS011;6456;42.680;23.260;2023-05-17T06:59:56;15.47;;;8.57;;
12784;SDS011;6456;42.680;23.260;2023-05-17T07:02:23;13.47;;;8.93;;
12784;SDS011;6456;42.680;23.260;2023-05-17T07:04:50;11.37;;;8.20;;
12784;SDS011;6456;42.680;23.260;2023-05-17T07:07:17;14.43;;;9.30;;
12784;SDS011;6456;42.680;23.260;2023-05-17T07:09:45;11.07;;;8.20;;
12784;SDS011;6456;42.680;23.260;2023-05-17T07:12:12;12.90;;;8.37;;
12784;SDS011;6456;42.680;23.260;2023-05-17T07:14:41;12.40;;;7.80;;
12784;SDS011;6456;42.680;23.260;2023-05-17T07:17:09;11.47;;;8.13;;
12784;SDS011;6456;42.680;23.260;2023-05-17T07:19:37;11.67;;;8.53;;
12784;SDS011;6456;42.680;23.260;2023-05-17T07:22:04;19.43;;;8.90;;
12784;SDS011;6456;42.680;23.260;2023-05-17T07:24:31;10.90;;;8.87;;
12784;SDS011;6456;42.680;23.260;2023-05-17T07:27:00;13.93;;;8.83;;
12784;SDS011;6456;42.680;23.260;2023-05-17T07:29:27;14.13;;;8.97;;
12784;SDS011;6456;42.680;23.260;2023-05-17T07:31:54;14.13;;;8.60;;
12784;SDS011;6456;42.680;23.260;2023-05-17T07:34:21;13.20;;;8.57;;
12784;SDS011;6456;42.680;23.260;2023-05-17T07:36:48;13.17;;;8.40;;
12784;SDS011;6456;42.680;23.260;2023-05-17T07:39:14;16.17;;;9.03;;
12784;SDS011;6456;42.680;23.260;2023-05-17T07:41:41;14.23;;;8.63;;
12784;SDS011;6456;42.680;23.260;2023-05-17T07:44:09;13.40;;;8.67;;
12784;SDS011;6456;42.680;23.260;2023-05-17T07:46:36;14.27;;;8.47;;
12784;SDS011;6456;42.680;23.260;2023-05-17T07:49:03;13.17;;;8.37;;
12784;SDS011;6456;42.680;23.260;2023-05-17T07:51:30;17.70;;;10.20;;
12784;SDS011;6456;42.680;23.260;2023-05-17T07:53:56;14.37;;;9.00;;
12784;SDS011;6456;42.680;23.260;2023-05-17T07:56:23;15.82;;;8.93;;
12784;SDS011;6456;42.680;23.260;2023-05-17T07:58:50;15.07;;;8.80;;
12784;SDS011;6456;42.680;23.260;2023-05-17T08:01:18;8.95;;;7.88;;
12784;SDS011;6456;42.680;23.260;2023-05-17T08:03:45;15.07;;;8.50;;
12784;SDS011;6456;42.680;23.260;2023-05-17T08:06:13;15.20;;;8.30;;
12784;SDS011;6456;42.680;23.260;2023-05-17T08:08:40;11.02;;;7.85;;
12784;SDS011;6456;42.680;23.260;2023-05-17T08:11:08;10.90;;;7.68;;
12784;SDS011;6456;42.680;23.260;2023-05-17T08:13:34;12.25;;;7.68;;
12784;SDS011;6456;42.680;23.260;2023-05-17T08:16:01;16.25;;;8.35;;
12784;SDS011;6456;42.680;23.260;2023-05-17T08:18:33;14.43;;;8.20;;
12784;SDS011;6456;42.680;23.260;2023-05-17T08:21:01;11.02;;;7.60;;
12784;SDS011;6456;42.680;23.260;2023-05-17T08:23:28;17.00;;;7.95;;
12784;SDS011;6456;42.680;23.260;2023-05-17T08:25:55;10.23;;;7.47;;
12784;SDS011;6456;42.680;23.260;2023-05-17T08:28:32;13.85;;;7.82;;
12784;SDS011;6456;42.680;23.260;2023-05-17T08:31:02;12.98;;;7.30;;
12784;SDS011;6456;42.680;23.260;2023-05-17T08:33:29;12.45;;;7.63;;
12784;SDS011;6456;42.680;23.260;2023-05-17T08:35:58;10.90;;;7.93;;
12784;SDS011;6456;42.680;23.260;2023-05-17T08:38:28;11.40;;;7.60;;
12784;SDS011;6456;42.680;23.260;2023-05-17T08:40:55;13.68;;;8.35;;
12784;SDS011;6456;42.680;23.260;2023-05-17T08:43:23;12.88;;;7.97;;
12784;SDS011;6456;42.680;23.260;2023-05-17T08:45:50;11.85;;;7.05;;
12784;SDS011;6456;42.680;23.260;2023-05-17T08:48:18;10.23;;;7.05;;
12784;SDS011;6456;42.680;23.260;2023-05-17T08:50:46;14.45;;;8.00;;
12784;SDS011;6456;42.680;23.260;2023-05-17T08:53:16;10.95;;;8.13;;
12784;SDS011;6456;42.680;23.260;2023-05-17T08:55:44;14.10;;;7.22;;
12784;SDS011;6456;42.680;23.260;2023-05-17T08:58:12;17.20;;;7.85;;
12784;SDS011;6456;42.680;23.260;2023-05-17T09:00:42;13.10;;;7.82;;
12784;SDS011;6456;42.680;23.260;2023-05-17T09:03:10;12.02;;;7.20;;
12784;SDS011;6456;42.680;23.260;2023-05-17T09:05:42;15.00;;;8.55;;
12784;SDS011;6456;42.680;23.260;2023-05-17T09:08:09;17.45;;;8.10;;
12784;SDS011;6456;42.680;23.260;2023-05-17T09:10:39;12.75;;;7.28;;
12784;SDS011;6456;42.680;23.260;2023-05-17T09:13:06;13.88;;;7.20;;
12784;SDS011;6456;42.680;23.260;2023-05-17T09:15:34;13.85;;;7.72;;
12784;SDS011;6456;42.680;23.260;2023-05-17T09:18:02;17.08;;;7.93;;
12784;SDS011;6456;42.680;23.260;2023-05-17T09:20:29;27.35;;;8.45;;
12784;SDS011;6456;42.680;23.260;2023-05-17T09:22:59;13.50;;;8.05;;
12784;SDS011;6456;42.680;23.260;2023-05-17T09:25:27;18.00;;;8.98;;
12784;SDS011;6456;42.680;23.260;2023-05-17T09:27:59;25.13;;;8.95;;
12784;SDS011;6456;42.680;23.260;2023-05-17T09:30:27;17.92;;;9.50;;
12784;SDS011;6456;42.680;23.260;2023-05-17T09:32:54;15.15;;;8.45;;
12784;SDS011;6456;42.680;23.260;2023-05-17T09:35:26;18.92;;;10.32;;
12784;SDS011;6456;42.680;23.260;2023-05-17T09:37:54;14.88;;;8.25;;
12784;SDS011;6456;42.680;23.260;2023-05-17T09:40:30;18.40;;;9.45;;
12784;SDS011;6456;42.680;23.260;2023-05-17T09:42:58;14.75;;;8.27;;
12784;SDS011;6456;42.680;23.260;2023-05-17T09:45:25;16.75;;;7.75;;
12784;SDS011;6456;42.680;23.260;2023-05-17T09:47:52;11.27;;;6.72;;
12784;SDS011;6456;42.680;23.260;2023-05-17T09:50:19;13.73;;;7.78;;
12784;SDS011;6456;42.680;23.260;2023-05-17T09:52:46;16.40;;;8.35;;
12784;SDS011;6456;42.680;23.260;2023-05-17T09:55:13;15.43;;;7.95;;
12784;SDS011;6456;42.680;23.260;2023-05-17T09:57:40;13.32;;;7.70;;
12784;SDS011;6456;42.680;23.260;2023-05-17T10:00:09;24.02;;;8.23;;
12784;SDS011;6456;42.680;23.260;2023-05-17T10:02:37;14.88;;;7.50;;
12784;SDS011;6456;42.680;23.260;2023-05-17T10:05:07;11.60;;;7.38;;
12784;SDS011;6456;42.680;23.260;2023-05-17T10:07:37;13.10;;;7.07;;
12784;SDS011;6456;42.680;23.260;2023-05-17T10:10:06;12.07;;;7.00;;
12784;SDS011;6456;42.680;23.260;2023-05-17T10:12:34;14.23;;;6.97;;
12784;SDS011;6456;42.680;23.260;2023-05-17T10:15:04;11.68;;;7.32;;
12784;SDS011;6456;42.680;23.260;2023-05-17T10:17:33;11.55;;;7.57;;
12784;SDS011;6456;42.680;23.260;2023-05-17T10:20:03;16.58;;;7.38;;
12784;SDS011;6456;42.680;23.260;2023-05-17T10:22:32;9.65;;;6.45;;
12784;SDS011;6456;42.680;23.260;2023-05-17T10:25:00;13.23;;;6.82;;
12784;SDS011;6456;42.680;23.260;2023-05-17T10:27:27;13.68;;;6.63;;
12784;SDS011;6456;42.680;23.260;2023-05-17T10:29:55;15.93;;;6.63;;
12784;SDS011;6456;42.680;23.260;2023-05-17T10:32:26;14.88;;;6.60;;
12784;SDS011;6456;42.680;23.260;2023-05-17T10:34:56;11.10;;;6.53;;
12784;SDS011;6456;42.680;23.260;2023-05-17T10:37:24;12.82;;;6.57;;
12784;SDS011;6456;42.680;23.260;2023-05-17T10:40:01;17.98;;;7.25;;
12784;SDS011;6456;42.680;23.260;2023-05-17T10:42:28;14.65;;;7.40;;
12784;SDS011;6456;42.680;23.260;2023-05-17T10:44:59;15.27;;;7.03;;
12784;SDS011;6456;42.680;23.260;2023-05-17T10:47:30;12.15;;;7.00;;
12784;SDS011;6456;42.680;23.260;2023-05-17T10:50:01;10.02;;;6.15;;
12784;SDS011;6456;42.680;23.260;2023-05-17T10:52:37;11.55;;;7.13;;
12784;SDS011;6456;42.680;23.260;2023-05-17T10:55:10;14.30;;;6.72;;
12784;SDS011;6456;42.680;23.260;2023-05-17T10:57:38;12.38;;;6.72;;
12784;SDS011;6456;42.680;23.260;2023-05-17T11:00:05;12.52;;;6.53;;
12784;SDS011;6456;42.680;23.260;2023-05-17T11:02:38;18.17;;;6.80;;
12784;SDS011;6456;42.680;23.260;2023-05-17T11:05:08;16.05;;;7.18;;
12784;SDS011;6456;42.680;23.260;2023-05-17T11:07:48;10.60;;;6.60;;
12784;SDS011;6456;42.680;23.260;2023-05-17T11:10:15;15.88;;;7.00;;
12784;SDS011;6456;42.680;23.260;2023-05-17T11:12:42;13.57;;;7.10;;
12784;SDS011;6456;42.680;23.260;2023-05-17T11:15:12;17.60;;;7.30;;
12784;SDS011;6456;42.680;23.260;2023-05-17T11:17:46;13.48;;;7.05;;
12784;SDS011;6456;42.680;23.260;2023-05-17T11:20:35;19.85;;;7.97;;
12784;SDS011;6456;42.680;23.260;2023-05-17T11:23:02;13.00;;;6.72;;
12784;SDS011;6456;42.680;23.260;2023-05-17T11:25:31;10.85;;;6.47;;
12784;SDS011;6456;42.680;23.260;2023-05-17T11:28:00;12.40;;;6.07;;
12784;SDS011;6456;42.680;23.260;2023-05-17T11:30:32;14.50;;;6.72;;
12784;SDS011;6456;42.680;23.260;2023-05-17T11:33:01;16.73;;;7.20;;
12784;SDS011;6456;42.680;23.260;2023-05-17T11:35:32;14.40;;;8.03;;
12784;SDS011;6456;42.680;23.260;2023-05-17T11:40:44;12.13;;;8.30;;
12784;SDS011;6456;42.680;23.260;2023-05-17T11:43:12;13.77;;;7.47;;
12784;SDS011;6456;42.680;23.260;2023-05-17T11:45:44;14.87;;;7.93;;
12784;SDS011;6456;42.680;23.260;2023-05-17T11:48:15;16.20;;;7.53;;
12784;SDS011;6456;42.680;23.260;2023-05-17T11:50:43;16.63;;;8.33;;
12784;SDS011;6456;42.680;23.260;2023-05-17T11:53:11;14.77;;;8.23;;
12784;SDS011;6456;42.680;23.260;2023-05-17T11:55:41;15.20;;;8.70;;
12784;SDS011;6456;42.680;23.260;2023-05-17T11:58:09;15.37;;;8.07;;
12784;SDS011;6456;42.680;23.260;2023-05-17T12:00:38;15.27;;;7.70;;
12784;SDS011;6456;42.680;23.260;2023-05-17T12:03:13;12.50;;;6.70;;
12784;SDS011;6456;42.680;23.260;2023-05-17T12:05:41;11.63;;;6.70;;
12784;SDS011;6456;42.680;23.260;2023-05-17T12:08:09;17.77;;;8.20;;
12784;SDS011;6456;42.680;23.260;2023-05-17T12:10:38;18.40;;;8.90;;
12784;SDS011;6456;42.680;23.260;2023-05-17T12:13:11;10.90;;;7.53;;
12784;SDS011;6456;42.680;23.260;2023-05-17T12:15:38;12.37;;;7.57;;
12784;SDS011;6456;42.680;23.260;2023-05-17T12:18:06;11.63;;;7.63;;
12784;SDS011;6456;42.680;23.260;2023-05-17T12:20:33;11.63;;;7.30;;
12784;SDS011;6456;42.680;23.260;2023-05-17T12:23:02;14.27;;;8.00;;
12784;SDS011;6456;42.680;23.260;2023-05-17T12:25:28;11.05;;;8.10;;
12784;SDS011;6456;42.680;23.260;2023-05-17T12:30:46;16.77;;;9.43;;
12784;SDS011;6456;42.680;23.260;2023-05-17T12:33:18;13.40;;;7.60;;
12784;SDS011;6456;42.680;23.260;2023-05-17T12:35:45;9.88;;;7.20;;
12784;SDS011;6456;42.680;23.260;2023-05-17T12:38:12;16.95;;;7.28;;
12784;SDS011;6456;42.680;23.260;2023-05-17T12:40:39;14.13;;;7.03;;
12784;SDS011;6456;42.680;23.260;2023-05-17T12:43:07;13.15;;;7.00;;
12784;SDS011;6456;42.680;23.260;2023-05-17T12:45:36;10.43;;;7.13;;
12784;SDS011;6456;42.680;23.260;2023-05-17T12:48:06;13.60;;;6.60;;
12784;SDS011;6456;42.680;23.260;2023-05-17T12:50:33;14.05;;;7.00;;
12784;SDS011;6456;42.680;23.260;2023-05-17T12:53:06;13.27;;;8.20;;
12784;SDS011;6456;42.680;23.260;2023-05-17T12:55:34;20.83;;;8.25;;
12784;SDS011;6456;42.680;23.260;2023-05-17T12:58:02;13.70;;;7.95;;
12784;SDS011;6456;42.680;23.260;2023-05-17T13:00:29;13.80;;;7.67;;
12784;SDS011;6456;42.680;23.260;2023-05-17T13:02:58;16.67;;;8.07;;
12784;SDS011;6456;42.680;23.260;2023-05-17T13:05:25;21.93;;;8.17;;
12784;SDS011;6456;42.680;23.260;2023-05-17T13:07:52;13.40;;;7.93;;
12784;SDS011;6456;42.680;23.260;2023-05-17T13:10:20;12.00;;;7.88;;
12784;SDS011;6456;42.680;23.260;2023-05-17T13:12:54;13.10;;;7.70;;
12784;SDS011;6456;42.680;23.260;2023-05-17T13:15:28;16.65;;;7.57;;
12784;SDS011;6456;42.680;23.260;2023-05-17T13:17:55;14.48;;;7.20;;
12784;SDS011;6456;42.680;23.260;2023-05-17T13:20:24;10.85;;;7.03;;
12784;SDS011;6456;42.680;23.260;2023-05-17T13:22:52;13.38;;;6.80;;
12784;SDS011;6456;42.680;23.260;2023-05-17T13:25:19;13.10;;;6.72;;
12784;SDS011;6456;42.680;23.260;2023-05-17T13:27:46;11.55;;;6.88;;
12784;SDS011;6456;42.680;23.260;2023-05-17T13:30:13;14.55;;;6.97;;
12784;SDS011;6456;42.680;23.260;2023-05-17T13:32:41;15.57;;;7.47;;
12784;SDS011;6456;42.680;23.260;2023-05-17T13:35:08;12.48;;;6.57;;
12784;SDS011;6456;42.680;23.260;2023-05-17T13:37:38;18.52;;;6.88;;
12784;SDS011;6456;42.680;23.260;2023-05-17T13:40:06;16.45;;;6.45;;
12784;SDS011;6456;42.680;23.260;2023-05-17T13:42:34;11.15;;;5.75;;
12784;SDS011;6456;42.680;23.260;2023-05-17T13:45:00;11.43;;;5.87;;
12784;SDS011;6456;42.680;23.260;2023-05-17T13:47:28;15.65;;;6.50;;
12784;SDS011;6456;42.680;23.260;2023-05-17T13:49:56;11.30;;;7.00;;
12784;SDS011;6456;42.680;23.260;2023-05-17T13:52:24;11.60;;;5.37;;
12784;SDS011;6456;42.680;23.260;2023-05-17T13:54:53;9.30;;;5.57;;
12784;SDS011;6456;42.680;23.260;2023-05-17T13:57:19;15.10;;;6.30;;
12784;SDS011;6456;42.680;23.260;2023-05-17T13:59:46;12.27;;;6.87;;
12784;SDS011;6456;42.680;23.260;2023-05-17T14:02:13;9.00;;;5.80;;
12784;SDS011;6456;42.680;23.260;2023-05-17T14:04:40;11.60;;;5.57;;
12784;SDS011;6456;42.680;23.260;2023-05-17T14:07:07;9.10;;;5.97;;
12784;SDS011;6456;42.680;23.260;2023-05-17T14:09:34;17.20;;;5.73;;
12784;SDS011;6456;42.680;23.260;2023-05-17T14:12:02;8.23;;;4.83;;
12784;SDS011;6456;42.680;23.260;2023-05-17T14:14:30;10.13;;;5.37;;
12784;SDS011;6456;42.680;23.260;2023-05-17T14:16:56;9.97;;;5.40;;
12784;SDS011;6456;42.680;23.260;2023-05-17T14:19:25;11.30;;;5.80;;
12784;SDS011;6456;42.680;23.260;2023-05-17T14:21:52;13.10;;;5.83;;
12784;SDS011;6456;42.680;23.260;2023-05-17T14:24:19;14.67;;;6.67;;
12784;SDS011;6456;42.680;23.260;2023-05-17T14:26:45;20.13;;;6.20;;
12784;SDS011;6456;42.680;23.260;2023-05-17T14:29:14;10.60;;;6.23;;
12784;SDS011;6456;42.680;23.260;2023-05-17T14:31:41;16.20;;;5.77;;
12784;SDS011;6456;42.680;23.260;2023-05-17T14:34:08;12.07;;;6.03;;
12784;SDS011;6456;42.680;23.260;2023-05-17T14:36:35;13.53;;;5.53;;
12784;SDS011;6456;42.680;23.260;2023-05-17T14:39:03;17.87;;;5.50;;
12784;SDS011;6456;42.680;23.260;2023-05-17T14:41:30;15.23;;;5.50;;